Time;durP1;ratioP1;P1;durP2;ratioP2;P2;SDS_P1;SDS_P2;PMS_P1;PMS_P2;Temp;Humidity;BMP_temperature;BMP_pressure;BME280_temperature;BME280_humidity;BME280_pressure;Samples;Min_cycle;Max_cycle;Signal;HPM_P1;HPM_P2
2022/04/08 00:01:08;;;;;;;10.40;0.75;;;5.50;99.90;;;;;;5042975;28;20489;-74
2022/04/08 00:03:34;;;;;;;10.80;0.77;;;5.50;99.90;;;;;;5040293;28;20145;-74
2022/04/08 00:06:02;;;;;;;11.38;0.75;;;5.50;99.90;;;;;;5058309;28;20369;-73
2022/04/08 00:08:28;;;;;;;12.77;1.33;;;5.50;99.90;;;;;;5060377;28;20379;-74
2022/04/08 00:10:54;;;;;;;7.43;0.80;;;5.50;99.90;;;;;;5059219;28;23806;-73
2022/04/08 00:13:21;;;;;;;9.02;0.88;;;5.50;99.90;;;;;;5057749;28;20028;-73
2022/04/08 00:15:47;;;;;;;9.60;0.80;;;5.60;99.90;;;;;;5014571;28;20475;-73
2022/04/08 00:18:14;;;;;;;5.10;0.60;;;5.60;99.90;;;;;;5042248;28;20780;-73
2022/04/08 00:20:40;;;;;;;10.23;0.77;;;5.60;99.90;;;;;;5063416;28;20039;-74
2022/04/08 00:23:06;;;;;;;8.40;0.60;;;5.60;99.90;;;;;;5029182;28;20461;-74
2022/04/08 00:25:33;;;;;;;5.57;0.65;;;5.70;99.90;;;;;;5081833;28;20059;-74
2022/04/08 00:27:59;;;;;;;4.60;0.40;;;5.70;99.90;;;;;;5063585;28;20036;-74
2022/04/08 00:30:26;;;;;;;8.65;0.65;;;5.70;99.90;;;;;;5048115;28;20031;-74
2022/04/08 00:32:55;;;;;;;9.70;0.93;;;5.70;99.90;;;;;;5060620;28;20031;-74
2022/04/08 00:35:22;;;;;;;5.07;0.45;;;5.70;99.90;;;;;;5046015;28;20474;-74
2022/04/08 00:37:49;;;;;;;9.52;0.60;;;5.70;99.90;;;;;;5047347;28;20012;-74
2022/04/08 00:40:16;;;;;;;6.75;0.75;;;5.70;99.90;;;;;;5050292;28;20467;-73
2022/04/08 00:42:44;;;;;;;10.10;0.70;;;5.60;99.90;;;;;;5025566;28;20035;-74
2022/04/08 00:45:11;;;;;;;10.10;0.90;;;5.60;99.90;;;;;;5064129;28;20036;-74
2022/04/08 00:47:41;;;;;;;6.18;0.60;;;5.60;99.90;;;;;;5080490;28;20020;-74
2022/04/08 00:50:09;;;;;;;9.18;1.17;;;5.60;99.90;;;;;;5083619;28;20039;-74
2022/04/08 00:52:37;;;;;;;7.88;0.75;;;5.60;99.90;;;;;;5080318;28;20020;-74
2022/04/08 00:55:05;;;;;;;8.82;0.98;;;5.60;99.90;;;;;;5047796;28;20486;-74
2022/04/08 00:57:32;;;;;;;4.15;0.50;;;5.50;99.90;;;;;;5081343;28;20020;-74
2022/04/08 01:00:07;;;;;;;4.80;0.40;;;5.50;99.90;;;;;;5063685;28;20020;-74
2022/04/08 01:02:34;;;;;;;6.25;0.50;;;5.50;99.90;;;;;;5061431;28;20020;-74
2022/04/08 01:05:03;;;;;;;9.00;1.38;;;5.50;99.90;;;;;;5046731;28;20028;-74
2022/04/08 01:07:31;;;;;;;12.13;0.95;;;5.50;99.90;;;;;;5047134;28;20499;-74
2022/04/08 01:09:58;;;;;;;7.20;0.80;;;5.50;99.90;;;;;;5081959;28;20032;-74
2022/04/08 01:12:25;;;;;;;10.77;0.95;;;5.50;99.90;;;;;;5061904;28;20007;-74
2022/04/08 01:14:58;;;;;;;10.00;0.65;;;5.50;99.90;;;;;;5081226;28;20024;-74
2022/04/08 01:17:25;;;;;;;9.18;0.75;;;5.50;99.90;;;;;;5046202;28;20027;-74
2022/04/08 01:19:52;;;;;;;12.18;0.85;;;5.50;99.90;;;;;;5046624;28;20491;-74
2022/04/08 01:22:19;;;;;;;9.52;0.90;;;5.50;99.90;;;;;;5076881;28;20031;-74
2022/04/08 01:24:51;;;;;;;14.50;1.60;;;5.50;99.90;;;;;;5045732;28;20470;-74
2022/04/08 01:27:19;;;;;;;9.50;0.88;;;5.40;99.90;;;;;;5047484;28;20040;-74
2022/04/08 01:29:47;;;;;;;8.73;0.60;;;5.30;99.90;;;;;;5083594;28;20012;-74
2022/04/08 01:32:15;;;;;;;10.27;0.97;;;5.20;99.90;;;;;;5030398;28;20028;-74
2022/04/08 01:34:43;;;;;;;9.10;0.57;;;5.10;99.90;;;;;;5047393;28;20020;-75
2022/04/08 01:37:10;;;;;;;8.80;0.77;;;5.00;99.90;;;;;;5033050;28;20024;-75
2022/04/08 01:39:37;;;;;;;10.95;0.95;;;4.90;99.90;;;;;;5048075;28;20055;-75
2022/04/08 01:42:04;;;;;;;10.30;1.17;;;4.90;99.90;;;;;;5062657;28;20021;-75
2022/04/08 01:44:31;;;;;;;10.00;0.70;;;4.80;99.90;;;;;;5030322;28;20424;-75
2022/04/08 01:46:57;;;;;;;11.68;1.00;;;4.80;99.90;;;;;;5044863;28;20032;-75
2022/04/08 01:49:23;;;;;;;13.43;1.42;;;4.70;99.90;;;;;;5033924;28;20028;-79
2022/04/08 01:51:51;;;;;;;12.05;1.10;;;4.60;99.90;;;;;;5033184;28;20051;-78
2022/04/08 01:54:17;;;;;;;9.48;1.60;;;4.60;99.90;;;;;;5066512;28;20039;-79
2022/04/08 01:56:44;;;;;;;8.95;0.93;;;4.60;99.90;;;;;;5067213;28;20043;-79
2022/04/08 01:59:10;;;;;;;10.57;0.70;;;4.50;99.90;;;;;;5052849;28;20139;-78
2022/04/08 02:01:37;;;;;;;13.38;1.38;;;4.50;99.90;;;;;;5066894;28;20055;-79
2022/04/08 02:04:04;;;;;;;12.77;1.10;;;4.40;99.90;;;;;;5067134;28;20032;-78
2022/04/08 02:06:31;;;;;;;10.63;1.02;;;4.40;99.90;;;;;;5048841;28;20032;-78
2022/04/08 02:08:58;;;;;;;10.10;0.90;;;4.40;99.90;;;;;;5084153;28;20034;-78
2022/04/08 02:11:28;;;;;;;11.23;0.87;;;4.40;99.90;;;;;;5065948;28;20032;-78
2022/04/08 02:13:54;;;;;;;14.45;1.13;;;4.30;99.90;;;;;;5064331;28;20028;-78
2022/04/08 02:16:20;;;;;;;8.87;1.03;;;4.30;99.90;;;;;;5066263;28;20028;-79
2022/04/08 02:18:48;;;;;;;7.45;0.88;;;4.30;99.90;;;;;;5047478;28;20055;-79
2022/04/08 02:21:19;;;;;;;11.67;1.20;;;4.20;99.90;;;;;;5032889;28;20066;-79
2022/04/08 02:23:49;;;;;;;15.02;1.10;;;4.10;99.90;;;;;;5050044;28;20402;-79
2022/04/08 02:26:16;;;;;;;10.37;1.23;;;4.10;99.90;;;;;;5065263;28;20059;-79
2022/04/08 02:28:44;;;;;;;8.97;0.90;;;4.10;99.90;;;;;;5066538;28;20043;-79
2022/04/08 02:31:11;;;;;;;12.20;0.83;;;4.10;99.90;;;;;;5050819;28;20032;-79
2022/04/08 02:33:38;;;;;;;12.50;1.55;;;4.10;99.90;;;;;;5065132;28;21196;-79
2022/04/08 02:36:06;;;;;;;7.85;0.95;;;4.00;99.90;;;;;;5033181;28;20040;-78
2022/04/08 02:38:32;;;;;;;9.93;0.63;;;4.00;99.90;;;;;;5054462;28;20055;-79
2022/04/08 02:40:59;;;;;;;14.33;1.20;;;4.00;99.90;;;;;;5065608;28;20024;-78
2022/04/08 02:43:25;;;;;;;13.73;0.90;;;4.00;99.90;;;;;;5063862;28;21482;-78
2022/04/08 02:45:52;;;;;;;9.30;0.70;;;4.00;99.90;;;;;;5047244;28;20063;-78
2022/04/08 02:48:18;;;;;;;9.50;1.17;;;4.00;99.90;;;;;;5052586;28;20046;-78
2022/04/08 02:50:45;;;;;;;11.90;0.70;;;4.00;99.90;;;;;;5035304;28;20078;-75
2022/04/08 02:53:12;;;;;;;12.03;1.33;;;3.90;99.90;;;;;;5010646;28;20028;-74
2022/04/08 02:55:38;;;;;;;16.67;1.70;;;3.90;99.90;;;;;;5079419;28;20024;-74
2022/04/08 02:58:05;;;;;;;19.67;1.50;;;3.90;99.90;;;;;;5043671;28;20024;-75
2022/04/08 03:00:31;;;;;;;15.77;1.42;;;3.90;99.90;;;;;;5014115;28;20024;-75
2022/04/08 03:02:58;;;;;;;10.97;0.83;;;3.90;99.90;;;;;;5029170;28;20064;-75
2022/04/08 03:05:24;;;;;;;12.82;1.30;;;3.90;99.90;;;;;;5061474;28;20028;-75
2022/04/08 03:07:50;;;;;;;8.53;0.90;;;3.90;99.90;;;;;;5028466;28;20043;-75
2022/04/08 03:10:17;;;;;;;10.17;0.70;;;3.90;99.90;;;;;;5060766;28;20047;-74
2022/04/08 03:12:43;;;;;;;13.07;1.37;;;4.00;99.90;;;;;;5060444;28;22745;-74
2022/04/08 03:15:11;;;;;;;9.03;1.03;;;4.10;99.90;;;;;;5060382;28;20051;-75
2022/04/08 03:17:37;;;;;;;15.32;1.30;;;4.10;99.90;;;;;;5011469;28;20020;-74
2022/04/08 03:20:07;;;;;;;13.82;1.02;;;4.20;99.90;;;;;;5046530;28;20016;-75
2022/04/08 03:22:34;;;;;;;11.73;1.58;;;4.30;99.90;;;;;;5059973;28;20799;-74
2022/04/08 03:25:00;;;;;;;13.33;1.57;;;4.30;99.90;;;;;;5056786;28;20040;-74
2022/04/08 03:27:27;;;;;;;16.50;1.20;;;4.40;99.90;;;;;;5058393;28;20037;-75
2022/04/08 03:29:54;;;;;;;16.45;1.23;;;4.40;99.90;;;;;;5042247;28;20017;-75
2022/04/08 03:32:20;;;;;;;11.93;1.33;;;4.40;99.90;;;;;;5040319;28;20032;-74
2022/04/08 03:34:57;;;;;;;11.37;1.10;;;4.40;99.90;;;;;;5039899;28;20036;-74
2022/04/08 03:37:26;;;;;;;8.45;0.68;;;4.40;99.90;;;;;;5039656;28;20040;-74
2022/04/08 03:39:54;;;;;;;4.37;0.50;;;4.40;99.90;;;;;;5040973;28;20044;-74
2022/04/08 03:42:25;;;;;;;9.05;1.10;;;4.40;99.90;;;;;;5023011;28;20032;-75
2022/04/08 03:44:52;;;;;;;10.53;0.83;;;4.30;99.90;;;;;;5058394;28;20029;-75
2022/04/08 03:47:22;;;;;;;7.87;0.77;;;4.40;99.90;;;;;;5036962;28;20037;-75
2022/04/08 03:49:48;;;;;;;6.38;1.15;;;4.40;99.90;;;;;;5061516;28;20021;-74
2022/04/08 03:52:17;;;;;;;8.13;0.70;;;4.30;99.90;;;;;;4994408;28;20048;-74
2022/04/08 03:54:44;;;;;;;8.00;0.68;;;4.40;99.90;;;;;;4994983;28;20023;-75
2022/04/08 03:57:11;;;;;;;6.90;0.70;;;4.30;99.90;;;;;;5009649;28;20029;-75
2022/04/08 03:59:37;;;;;;;11.97;0.80;;;4.30;99.90;;;;;;5011745;28;20025;-74
2022/04/08 04:02:07;;;;;;;7.55;1.30;;;4.20;99.90;;;;;;5041273;28;20380;-75
2022/04/08 04:04:34;;;;;;;8.43;0.73;;;4.20;99.90;;;;;;5027200;28;20423;-75
2022/04/08 04:07:01;;;;;;;7.03;0.60;;;4.10;99.90;;;;;;5009642;28;20059;-75
2022/04/08 04:09:27;;;;;;;8.67;0.60;;;4.00;99.90;;;;;;5030026;28;20028;-74
2022/04/08 04:11:54;;;;;;;6.75;0.70;;;3.90;99.90;;;;;;5039438;28;20043;-74
2022/04/08 04:14:23;;;;;;;10.87;1.07;;;3.90;99.90;;;;;;5059324;28;20017;-75
2022/04/08 04:16:49;;;;;;;10.82;1.20;;;3.90;99.90;;;;;;5058181;28;20016;-75
2022/04/08 04:19:17;;;;;;;6.80;0.80;;;3.80;99.90;;;;;;5029733;28;20025;-75
2022/04/08 04:21:44;;;;;;;6.40;0.90;;;3.80;99.90;;;;;;5026125;28;20380;-75
2022/04/08 04:24:10;;;;;;;10.63;1.07;;;3.80;99.90;;;;;;5039702;28;20029;-74
2022/04/08 04:26:47;;;;;;;8.80;0.73;;;3.70;99.90;;;;;;5007237;28;20052;-74
2022/04/08 04:29:13;;;;;;;5.27;0.73;;;3.70;99.90;;;;;;5025796;28;20345;-74
2022/04/08 04:31:42;;;;;;;6.50;0.70;;;3.60;99.90;;;;;;5060487;28;21064;-75
2022/04/08 04:34:11;;;;;;;5.70;0.80;;;3.60;99.90;;;;;;4998814;28;20021;-74
2022/04/08 04:36:40;;;;;;;7.43;1.13;;;3.60;99.90;;;;;;5016126;28;20024;-74
2022/04/08 04:39:07;;;;;;;5.10;0.80;;;3.60;99.90;;;;;;5018102;28;20029;-75
2022/04/08 04:41:34;;;;;;;5.73;0.70;;;3.50;99.90;;;;;;5027350;28;20368;-75
2022/04/08 04:44:01;;;;;;;8.73;0.83;;;3.50;99.90;;;;;;5038622;28;20021;-74
2022/04/08 04:46:28;;;;;;;7.57;0.57;;;3.50;99.90;;;;;;5059505;28;20020;-74
2022/04/08 04:48:54;;;;;;;4.57;0.70;;;3.50;99.90;;;;;;5043207;28;20055;-75
2022/04/08 04:51:20;;;;;;;4.83;0.50;;;3.40;99.90;;;;;;5041038;28;20471;-73
2022/04/08 04:53:47;;;;;;;3.73;0.37;;;3.40;99.90;;;;;;5056763;28;20020;-74
2022/04/08 04:56:13;;;;;;;7.60;3.87;;;3.40;99.90;;;;;;5043484;28;20380;-75
2022/04/08 04:58:43;;;;;;;6.00;1.17;;;3.40;99.90;;;;;;5027517;28;20032;-75
2022/04/08 05:01:09;;;;;;;9.07;1.20;;;3.30;99.90;;;;;;5057496;28;20024;-74
2022/04/08 05:03:36;;;;;;;7.03;1.70;;;3.30;99.90;;;;;;5054205;28;20028;-74
2022/04/08 05:06:02;;;;;;;8.57;1.50;;;3.30;99.90;;;;;;5039292;28;20021;-74
2022/04/08 05:08:31;;;;;;;6.33;1.10;;;3.30;99.90;;;;;;5027460;28;20029;-74
2022/04/08 05:10:58;;;;;;;6.20;0.80;;;3.30;99.90;;;;;;4994213;28;20040;-74
2022/04/08 05:13:24;;;;;;;6.00;0.90;;;3.30;99.90;;;;;;5021566;28;20047;-74
2022/04/08 05:15:51;;;;;;;3.67;0.75;;;3.30;99.90;;;;;;5058050;28;20023;-77
2022/04/08 05:18:17;;;;;;;5.43;0.70;;;3.30;99.90;;;;;;5010971;28;20036;-77
2022/04/08 05:20:43;;;;;;;2.77;0.67;;;3.30;99.90;;;;;;5062722;28;20558;-77
2022/04/08 05:23:10;;;;;;;6.53;0.97;;;3.30;99.90;;;;;;5027291;28;20028;-77
2022/04/08 05:25:36;;;;;;;8.47;1.47;;;3.30;99.90;;;;;;5028373;28;20372;-77
2022/04/08 05:28:03;;;;;;;4.80;0.80;;;3.30;99.90;;;;;;5015035;28;20531;-74
2022/04/08 05:30:30;;;;;;;6.07;1.20;;;3.30;99.90;;;;;;5056712;28;20052;-77
2022/04/08 05:32:56;;;;;;;9.60;1.50;;;3.40;99.90;;;;;;5010054;28;20040;-77
2022/04/08 05:35:22;;;;;;;8.53;1.10;;;3.40;99.90;;;;;;5012966;28;20037;-77
2022/04/08 05:37:49;;;;;;;10.70;1.37;;;3.40;99.90;;;;;;5026108;28;20028;-77
2022/04/08 05:40:23;;;;;;;8.53;1.70;;;3.40;99.90;;;;;;5040669;28;20364;-77
2022/04/08 05:42:50;;;;;;;12.47;1.10;;;3.50;99.90;;;;;;5044799;28;20025;-77
2022/04/08 05:45:21;;;;;;;12.53;1.63;;;3.50;99.90;;;;;;5041860;28;20472;-74
2022/04/08 05:47:49;;;;;;;5.37;1.60;;;3.60;99.90;;;;;;5059161;28;20029;-77
2022/04/08 05:50:18;;;;;;;14.27;1.87;;;3.70;99.90;;;;;;5062344;28;20056;-77
2022/04/08 05:52:47;;;;;;;6.57;1.13;;;3.70;99.90;;;;;;5057931;28;20495;-77
2022/04/08 05:55:14;;;;;;;11.00;2.17;;;3.80;99.90;;;;;;5029497;28;20515;-77
2022/04/08 05:57:41;;;;;;;6.63;1.40;;;3.80;99.90;;;;;;5041866;28;20029;-77
2022/04/08 06:00:10;;;;;;;10.65;1.70;;;3.90;99.90;;;;;;5069464;28;20486;-77
2022/04/08 06:02:37;;;;;;;10.07;1.77;;;3.90;99.90;;;;;;5062045;28;20043;-78
2022/04/08 06:05:05;;;;;;;14.43;2.23;;;4.10;99.90;;;;;;5043919;28;20049;-77
2022/04/08 06:07:31;;;;;;;9.13;2.10;;;4.20;99.90;;;;;;5025573;28;20021;-78
2022/04/08 06:10:02;;;;;;;13.57;2.20;;;4.30;99.90;;;;;;4996012;28;20619;-77
2022/04/08 06:12:28;;;;;;;10.07;1.73;;;4.40;99.90;;;;;;5057863;28;20526;-77
2022/04/08 06:14:55;;;;;;;11.43;2.72;;;4.50;99.90;;;;;;5010258;28;20025;-77
2022/04/08 06:17:21;;;;;;;10.40;2.03;;;4.60;99.90;;;;;;5016062;28;20032;-77
2022/04/08 06:19:49;;;;;;;10.17;2.30;;;4.70;99.90;;;;;;5045006;28;20033;-77
2022/04/08 06:22:15;;;;;;;7.95;1.42;;;4.70;99.90;;;;;;5034440;28;20392;-77
2022/04/08 06:24:41;;;;;;;13.35;2.45;;;4.80;99.90;;;;;;5027590;28;20044;-77
2022/04/08 06:27:08;;;;;;;6.70;1.77;;;4.90;99.90;;;;;;5025934;28;20032;-77
2022/04/08 06:29:35;;;;;;;10.90;1.83;;;4.90;99.90;;;;;;5027449;28;20044;-77
2022/04/08 06:32:01;;;;;;;7.75;1.63;;;5.00;99.90;;;;;;5020189;28;20074;-77
2022/04/08 06:34:27;;;;;;;8.55;1.83;;;5.10;99.90;;;;;;5026835;28;20068;-76
2022/04/08 06:36:54;;;;;;;9.07;2.17;;;5.20;99.90;;;;;;5053677;28;20025;-78
2022/04/08 06:39:20;;;;;;;8.07;1.35;;;5.20;99.90;;;;;;5039500;28;20025;-79
2022/04/08 06:41:47;;;;;;;8.30;1.75;;;5.40;99.90;;;;;;5018417;28;20037;-77
2022/04/08 06:44:13;;;;;;;8.60;2.08;;;5.40;99.90;;;;;;5038141;28;20036;-79
2022/04/08 06:46:39;;;;;;;16.08;2.85;;;5.40;99.90;;;;;;5041604;28;20033;-79
2022/04/08 06:49:06;;;;;;;10.30;2.38;;;5.40;99.90;;;;;;5025905;28;20489;-79
2022/04/08 06:51:33;;;;;;;5.60;1.80;;;5.50;99.90;;;;;;5043431;28;20047;-80
2022/04/08 06:54:00;;;;;;;10.00;2.22;;;5.50;99.90;;;;;;5043056;28;20024;-80
2022/04/08 06:56:28;;;;;;;9.18;2.67;;;5.60;99.90;;;;;;5059767;28;20024;-80
2022/04/08 06:58:54;;;;;;;7.07;1.77;;;5.80;99.90;;;;;;5044030;28;20028;-78
2022/04/08 07:01:22;;;;;;;11.15;2.03;;;5.90;99.90;;;;;;5043136;28;20392;-77
2022/04/08 07:03:49;;;;;;;5.00;1.40;;;6.00;99.90;;;;;;5043423;28;20036;-79
2022/04/08 07:06:15;;;;;;;6.15;2.13;;;6.20;99.90;;;;;;5011567;28;20033;-79
2022/04/08 07:08:46;;;;;;;9.30;1.60;;;6.30;99.90;;;;;;5010986;28;20040;-79
2022/04/08 07:11:15;;;;;;;8.68;2.25;;;6.40;99.90;;;;;;5013976;28;20043;-76
2022/04/08 07:13:41;;;;;;;5.72;2.17;;;6.50;99.90;;;;;;5041428;28;20095;-77
2022/04/08 07:16:11;;;;;;;8.77;1.52;;;6.50;99.90;;;;;;5024674;28;20040;-77
2022/04/08 07:18:37;;;;;;;6.10;2.03;;;6.70;99.90;;;;;;5039050;28;20021;-77
2022/04/08 07:21:04;;;;;;;8.77;2.95;;;6.70;99.90;;;;;;5026314;28;20029;-76
2022/04/08 07:23:30;;;;;;;9.10;2.88;;;6.80;99.90;;;;;;5054544;28;20024;-77
2022/04/08 07:25:56;;;;;;;5.70;1.83;;;6.90;99.90;;;;;;5025109;28;20412;-76
2022/04/08 07:28:23;;;;;;;7.95;1.02;;;7.00;99.90;;;;;;5025510;28;20016;-75
2022/04/08 07:30:51;;;;;;;10.25;1.67;;;7.10;99.90;;;;;;5037806;28;20588;-76
2022/04/08 07:33:17;;;;;;;6.90;1.75;;;7.10;99.90;;;;;;5055742;28;20395;-76
2022/04/08 07:35:44;;;;;;;5.40;1.25;;;7.20;99.90;;;;;;5040151;28;20032;-76
2022/04/08 07:38:11;;;;;;;5.40;1.55;;;7.20;99.90;;;;;;5009278;28;20399;-76
2022/04/08 07:40:38;;;;;;;10.93;2.90;;;7.30;99.90;;;;;;5009454;28;20033;-76
2022/04/08 07:43:05;;;;;;;9.63;2.10;;;7.40;99.90;;;;;;5021132;28;20383;-77
2022/04/08 07:45:36;;;;;;;12.40;1.73;;;7.50;99.90;;;;;;5010063;28;20056;-77
2022/04/08 07:48:03;;;;;;;10.85;2.15;;;7.50;99.90;;;;;;5058086;28;20297;-77
2022/04/08 07:50:30;;;;;;;6.32;1.63;;;7.50;99.90;;;;;;5018013;28;20636;-77
2022/04/08 07:52:56;;;;;;;11.20;1.83;;;7.60;99.90;;;;;;5023459;28;20044;-77
2022/04/08 07:55:24;;;;;;;5.22;1.10;;;7.60;99.90;;;;;;5025542;28;20039;-75
2022/04/08 07:57:52;;;;;;;7.13;1.50;;;7.70;99.90;;;;;;5057816;28;20031;-77
2022/04/08 08:00:21;;;;;;;5.78;0.90;;;7.80;99.90;;;;;;5024573;28;20025;-77
2022/04/08 08:02:48;;;;;;;7.10;1.08;;;7.90;99.90;;;;;;5060788;28;20044;-78
2022/04/08 08:05:15;;;;;;;4.53;1.00;;;8.00;99.90;;;;;;5027815;28;20055;-78
2022/04/08 08:07:50;;;;;;;9.43;1.83;;;8.10;99.90;;;;;;5043038;28;20484;-79
2022/04/08 08:10:19;;;;;;;7.45;1.65;;;8.20;99.90;;;;;;5027443;28;21127;-79
2022/04/08 08:12:47;;;;;;;11.55;1.48;;;8.30;99.90;;;;;;5058328;28;20033;-77
2022/04/08 08:15:15;;;;;;;10.27;1.98;;;8.40;99.90;;;;;;5026131;28;20048;-79
2022/04/08 08:17:42;;;;;;;4.63;1.13;;;8.40;99.90;;;;;;5012106;28;20028;-78
2022/04/08 08:20:09;;;;;;;9.80;1.17;;;8.40;99.90;;;;;;5041245;28;20020;-77
2022/04/08 08:22:36;;;;;;;5.43;0.90;;;8.40;99.90;;;;;;5041503;28;20487;-77
2022/04/08 08:25:05;;;;;;;7.18;1.73;;;8.50;99.90;;;;;;5059229;28;20032;-77
2022/04/08 08:27:39;;;;;;;10.13;1.48;;;8.60;99.90;;;;;;5040145;28;20047;-76
2022/04/08 08:30:10;;;;;;;6.80;1.67;;;8.60;99.90;;;;;;5008692;28;20029;-77
2022/04/08 08:32:38;;;;;;;12.20;2.17;;;8.70;99.90;;;;;;5023732;28;20040;-77
2022/04/08 08:35:17;;;;;;;6.80;1.20;;;8.70;99.90;;;;;;5053691;28;20488;-76
2022/04/08 08:37:44;;;;;;;4.88;1.20;;;8.80;99.90;;;;;;5030871;28;20046;-77
2022/04/08 08:40:11;;;;;;;4.07;1.30;;;8.80;99.90;;;;;;5041501;28;20052;-77
2022/04/08 08:42:39;;;;;;;8.40;0.93;;;8.80;99.90;;;;;;5041383;28;20393;-77
2022/04/08 08:45:07;;;;;;;7.07;1.48;;;8.90;99.90;;;;;;5025713;28;20399;-76
2022/04/08 08:47:34;;;;;;;6.40;1.40;;;9.00;99.90;;;;;;5013786;28;20029;-77
2022/04/08 08:50:02;;;;;;;13.20;1.50;;;9.00;99.90;;;;;;5046948;28;20040;-76
2022/04/08 08:52:29;;;;;;;4.75;1.17;;;9.10;99.90;;;;;;5042222;28;20021;-77
2022/04/08 08:54:55;;;;;;;10.07;1.00;;;9.10;99.90;;;;;;5040527;28;20025;-76
2022/04/08 08:57:23;;;;;;;4.68;0.80;;;9.20;99.90;;;;;;5005965;28;20029;-77
2022/04/08 09:00:02;;;;;;;8.55;0.90;;;9.20;99.90;;;;;;5040253;28;20371;-77
2022/04/08 09:02:28;;;;;;;13.98;1.35;;;9.30;99.90;;;;;;5036603;28;20059;-77
2022/04/08 09:04:54;;;;;;;5.68;1.00;;;9.30;99.90;;;;;;5024009;28;20049;-77
2022/04/08 09:07:26;;;;;;;5.53;1.00;;;9.30;99.90;;;;;;5057887;28;20021;-77
2022/04/08 09:09:57;;;;;;;8.50;0.77;;;9.30;99.90;;;;;;5043638;28;20033;-78
2022/04/08 09:12:25;;;;;;;10.00;1.30;;;9.40;99.90;;;;;;5025098;28;20048;-77
2022/04/08 09:15:04;;;;;;;9.20;0.77;;;9.50;99.90;;;;;;5059060;28;20033;-77
2022/04/08 09:17:30;;;;;;;4.53;0.80;;;9.50;99.90;;;;;;5041802;28;20029;-77
2022/04/08 09:19:58;;;;;;;5.35;0.60;;;9.60;99.90;;;;;;5028306;28;20025;-78
2022/04/08 09:22:32;;;;;;;6.10;0.90;;;9.70;99.90;;;;;;5037141;28;20063;-77
2022/04/08 09:25:12;;;;;;;5.40;0.95;;;9.90;99.90;;;;;;5024380;28;20423;-78
2022/04/08 09:27:41;;;;;;;5.57;0.80;;;10.10;99.90;;;;;;5041688;28;20526;-77
2022/04/08 09:30:08;;;;;;;6.82;0.60;;;10.20;99.90;;;;;;5040858;28;20051;-77
2022/04/08 09:32:36;;;;;;;9.00;1.00;;;10.30;99.90;;;;;;5021081;28;20040;-78
2022/04/08 09:35:04;;;;;;;5.75;0.90;;;10.40;99.90;;;;;;5009583;28;20421;-77
2022/04/08 09:37:30;;;;;;;7.50;1.00;;;10.40;99.90;;;;;;5039903;28;21084;-77
2022/04/08 09:40:07;;;;;;;3.42;0.80;;;10.50;99.90;;;;;;4994834;28;20037;-78
2022/04/08 09:42:45;;;;;;;5.55;0.90;;;10.60;99.90;;;;;;5036723;28;20032;-78
2022/04/08 09:45:13;;;;;;;7.50;0.85;;;10.70;99.90;;;;;;5040678;28;20036;-78
2022/04/08 09:47:40;;;;;;;4.90;1.00;;;10.80;99.90;;;;;;5039603;28;20029;-78
2022/04/08 09:50:11;;;;;;;5.28;0.98;;;10.90;99.90;;;;;;5042929;28;20024;-78
2022/04/08 09:52:41;;;;;;;5.90;1.05;;;11.00;99.90;;;;;;5038232;28;20032;-78
2022/04/08 09:55:09;;;;;;;4.38;0.93;;;11.00;99.90;;;;;;5039197;28;20076;-78
2022/04/08 09:57:40;;;;;;;9.02;0.90;;;11.00;99.90;;;;;;5057161;28;20024;-78
2022/04/08 10:00:08;;;;;;;7.35;1.08;;;11.00;99.90;;;;;;5041391;28;20021;-78
2022/04/08 10:02:39;;;;;;;5.47;0.60;;;11.00;99.90;;;;;;5023076;28;20041;-78
2022/04/08 10:05:08;;;;;;;6.50;0.93;;;11.00;99.90;;;;;;5040667;28;20475;-78
2022/04/08 10:07:36;;;;;;;5.55;1.40;;;11.00;99.90;;;;;;5030927;28;20437;-78
2022/04/08 10:10:21;;;;;;;7.55;1.00;;;10.90;99.90;;;;;;5040559;28;20020;-77
2022/04/08 10:13:16;;;;;;;6.50;0.80;;;10.90;99.90;;;;;;5057497;28;20028;-78
2022/04/08 10:15:53;;;;;;;5.47;0.98;;;11.00;99.90;;;;;;5025572;28;20028;-77
2022/04/08 10:18:19;;;;;;;6.47;1.02;;;11.00;99.90;;;;;;5039621;28;20020;-77
2022/04/08 10:20:46;;;;;;;8.77;1.52;;;11.00;99.90;;;;;;5007677;28;20036;-77
2022/04/08 10:23:16;;;;;;;10.27;0.88;;;11.00;99.90;;;;;;5002974;28;20184;-78
2022/04/08 10:25:48;;;;;;;4.95;1.15;;;11.00;99.90;;;;;;5020401;28;20515;-78
2022/04/08 10:28:14;;;;;;;8.90;1.20;;;11.10;99.90;;;;;;5042992;28;20371;-78
2022/04/08 10:30:46;;;;;;;7.03;1.35;;;11.20;99.90;;;;;;5036977;28;20364;-78
2022/04/08 10:33:13;;;;;;;6.03;0.98;;;11.30;99.90;;;;;;5041594;28;20055;-78
2022/04/08 10:35:53;;;;;;;6.82;1.40;;;11.30;99.90;;;;;;5060331;28;20040;-78
2022/04/08 10:38:22;;;;;;;5.22;1.20;;;11.20;99.90;;;;;;5043819;28;20483;-78
2022/04/08 10:40:58;;;;;;;5.80;1.10;;;11.20;99.90;;;;;;5042947;28;20529;-78
2022/04/08 10:43:52;;;;;;;6.45;1.02;;;11.10;99.90;;;;;;5052251;28;20364;-79
2022/04/08 10:46:34;;;;;;;4.70;1.25;;;11.20;99.90;;;;;;5060857;28;20037;-79
2022/04/08 10:49:01;;;;;;;5.75;1.30;;;11.20;99.90;;;;;;5024912;28;20064;-78
2022/04/08 10:51:31;;;;;;;6.72;1.48;;;11.20;99.90;;;;;;5043558;28;20049;-79
2022/04/08 10:54:08;;;;;;;5.18;1.42;;;11.30;99.90;;;;;;5023515;28;20048;-77
2022/04/08 10:56:34;;;;;;;4.18;0.82;;;11.50;99.90;;;;;;5000213;28;20025;-78
2022/04/08 10:59:01;;;;;;;5.65;0.90;;;11.70;99.90;;;;;;5062276;28;20047;-79
2022/04/08 11:01:28;;;;;;;11.07;1.20;;;11.80;99.90;;;;;;5051410;28;20055;-75
2022/04/08 11:03:57;;;;;;;7.47;1.00;;;11.80;99.90;;;;;;5056536;28;20036;-76
2022/04/08 11:06:32;;;;;;;4.53;1.08;;;11.80;99.90;;;;;;5038915;28;20028;-77
2022/04/08 11:09:08;;;;;;;5.40;1.00;;;11.80;99.90;;;;;;5042701;28;20049;-77
2022/04/08 11:11:41;;;;;;;6.93;0.95;;;11.70;99.90;;;;;;5014829;28;20463;-77
2022/04/08 11:14:11;;;;;;;5.70;1.52;;;11.70;99.90;;;;;;5041735;28;20036;-78
2022/04/08 11:16:40;;;;;;;7.13;1.20;;;11.60;99.90;;;;;;5041784;28;20480;-78
2022/04/08 11:19:10;;;;;;;5.82;1.35;;;11.70;99.90;;;;;;5023083;28;20046;-78
2022/04/08 11:21:39;;;;;;;6.57;1.27;;;11.70;99.90;;;;;;5041172;28;20024;-82
2022/04/08 11:24:09;;;;;;;8.52;2.00;;;11.80;99.90;;;;;;5006119;28;20420;-81
2022/04/08 11:26:43;;;;;;;6.05;1.50;;;11.80;99.90;;;;;;4992357;28;20063;-77
2022/04/08 11:29:12;;;;;;;6.40;1.20;;;11.90;99.90;;;;;;5057851;28;20040;-77
2022/04/08 11:31:39;;;;;;;2.83;0.68;;;11.90;99.90;;;;;;5038171;28;20020;-78
2022/04/08 11:34:06;;;;;;;5.45;1.40;;;12.00;99.90;;;;;;5017661;28;20510;-79
2022/04/08 11:36:35;;;;;;;4.32;0.85;;;12.00;99.90;;;;;;5017822;28;20029;-79
2022/04/08 11:39:04;;;;;;;6.75;1.02;;;12.00;99.90;;;;;;5020909;28;20032;-77
2022/04/08 11:41:31;;;;;;;3.83;1.27;;;12.00;99.90;;;;;;4996205;28;20369;-78
2022/04/08 11:43:57;;;;;;;8.75;1.42;;;12.00;99.90;;;;;;5015968;28;20502;-78
2022/04/08 11:46:25;;;;;;;6.22;1.05;;;12.10;99.90;;;;;;5017021;28;20067;-75
2022/04/08 11:48:52;;;;;;;12.13;7.30;;;12.20;99.90;;;;;;5036696;28;20375;-77
2022/04/08 11:51:20;;;;;;;10.00;2.83;;;12.30;99.90;;;;;;5037455;28;20060;-76
2022/04/08 11:53:52;;;;;;;5.53;1.05;;;12.30;99.90;;;;;;4985996;28;20043;-76
2022/04/08 11:56:25;;;;;;;5.53;1.30;;;12.20;99.90;;;;;;5034169;28;20039;-76
2022/04/08 11:58:56;;;;;;;5.63;1.15;;;12.10;99.90;;;;;;5054167;28;20472;-76
2022/04/08 12:01:25;;;;;;;7.97;1.38;;;12.10;99.90;;;;;;5036079;28;20432;-76
2022/04/08 12:03:52;;;;;;;3.50;1.10;;;12.10;99.90;;;;;;5016913;28;20035;-76
2022/04/08 12:06:19;;;;;;;5.68;1.20;;;12.10;99.90;;;;;;5052714;28;20025;-76
2022/04/08 12:08:47;;;;;;;4.55;1.15;;;12.30;99.90;;;;;;5056065;28;20028;-76
2022/04/08 12:11:14;;;;;;;10.20;1.85;;;12.60;99.90;;;;;;5038561;28;20032;-76
2022/04/08 12:13:42;;;;;;;6.32;1.25;;;12.70;99.90;;;;;;5018482;28;20052;-76
2022/04/08 12:16:13;;;;;;;7.32;1.52;;;12.80;99.90;;;;;;5006019;28;20668;-77
2022/04/08 12:18:48;;;;;;;9.20;1.38;;;12.90;99.90;;;;;;5011068;28;20021;-75
2022/04/08 12:21:22;;;;;;;4.47;1.15;;;13.00;99.90;;;;;;5058267;28;20033;-75
2022/04/08 12:23:50;;;;;;;4.63;1.05;;;13.00;99.90;;;;;;5053591;28;20854;-76
2022/04/08 12:26:18;;;;;;;7.10;1.08;;;13.00;99.90;;;;;;5022663;28;20040;-76
2022/04/08 12:28:44;;;;;;;7.22;1.00;;;12.90;99.90;;;;;;5041072;28;20032;-75
2022/04/08 12:31:17;;;;;;;7.80;1.10;;;12.80;99.90;;;;;;5022866;28;20041;-76
2022/04/08 12:33:44;;;;;;;;;;;12.80;99.90;;;;;;5056172;28;20336;-76
2022/04/08 12:36:12;;;;;;;4.70;1.02;;;12.70;99.90;;;;;;5040331;28;19919;-76
2022/04/08 12:38:42;;;;;;;6.97;1.13;;;12.60;99.90;;;;;;5042077;28;20056;-76
2022/04/08 12:41:10;;;;;;;6.63;1.20;;;12.40;99.90;;;;;;5038685;28;20027;-76
2022/04/08 12:43:38;;;;;;;8.68;1.45;;;12.30;99.90;;;;;;5002411;28;20049;-76
2022/04/08 12:46:05;;;;;;;5.93;1.27;;;12.30;99.90;;;;;;5022636;28;20052;-76
2022/04/08 12:48:32;;;;;;;2.88;0.93;;;12.40;99.90;;;;;;5059541;28;20037;-76
2022/04/08 12:51:00;;;;;;;3.97;0.90;;;12.40;99.90;;;;;;5022812;28;20040;-76
2022/04/08 12:53:29;;;;;;;6.07;1.27;;;12.30;99.90;;;;;;5002680;28;20033;-75
2022/04/08 12:55:57;;;;;;;6.30;1.10;;;12.10;99.90;;;;;;5038991;28;20377;-77